createdAt,value
2019-01-21T00:00:22.284Z,81.40
2019-01-21T00:01:22.269Z,81.40
2019-01-21T00:02:22.278Z,81.30
2019-01-21T00:03:22.263Z,81.47
2019-01-21T00:04:22.232Z,80.74
2019-01-21T00:05:22.226Z,80.84
2019-01-21T00:06:22.214Z,80.42
2019-01-21T00:07:22.221Z,80.60
2019-01-21T00:08:22.195Z,80.32
2019-01-21T00:09:22.190Z,80.38
2019-01-21T00:10:22.162Z,79.75
2019-01-21T00:11:22.160Z,79.65
2019-01-21T00:12:22.200Z,79.69
2019-01-21T00:13:22.132Z,79.79
2019-01-21T00:14:22.131Z,79.58
2019-01-21T00:15:22.116Z,80.21
2019-01-21T00:16:23.069Z,80.32
2019-01-21T00:17:22.437Z,80.42
2019-01-21T00:18:22.088Z,80.94
2019-01-21T00:19:22.085Z,81.37
2019-01-21T00:20:22.055Z,80.74
2019-01-21T00:21:22.052Z,80.46
2019-01-21T00:22:22.061Z,80.49
2019-01-21T00:23:22.027Z,80.71
2019-01-21T00:24:22.009Z,80.81
2019-01-21T00:25:22.003Z,81.44
2019-01-21T00:26:22.018Z,81.44
2019-01-21T00:27:21.978Z,80.71
2019-01-21T00:28:21.965Z,80.18
2019-01-21T00:29:21.957Z,81.54
2019-01-21T00:30:21.956Z,81.02
2019-01-21T00:31:21.956Z,80.49
2019-01-21T00:32:21.922Z,81.44
2019-01-21T00:33:21.936Z,81.30
2019-01-21T00:34:21.906Z,80.57
2019-01-21T00:35:21.891Z,80.15
2019-01-21T00:36:21.888Z,79.72
2019-01-21T00:37:21.879Z,80.00
2019-01-21T00:38:21.891Z,79.48
2019-01-21T00:39:21.845Z,79.48
2019-01-21T00:40:21.836Z,79.48
2019-01-21T00:41:21.823Z,79.48
2019-01-21T00:42:21.813Z,79.69
2019-01-21T00:43:21.816Z,79.16
2019-01-21T00:44:21.799Z,79.38
2019-01-21T00:45:21.791Z,79.16
2019-01-21T00:46:21.769Z,79.16
2019-01-21T00:47:21.755Z,79.38
2019-01-21T00:48:21.766Z,79.27
2019-01-21T00:49:21.740Z,79.65
2019-01-21T00:50:21.726Z,79.44
2019-01-21T00:51:21.722Z,79.38
2019-01-21T00:52:21.716Z,79.48
2019-01-21T00:53:21.721Z,79.38
2019-01-21T00:54:21.687Z,80.07
2019-01-21T00:55:21.674Z,79.86
2019-01-21T00:56:21.659Z,79.34
2019-01-21T00:57:21.649Z,79.16
2019-01-21T00:58:21.657Z,79.48
2019-01-21T00:59:21.633Z,80.11
2019-01-21T01:00:21.620Z,80.00
2019-01-21T01:01:21.612Z,80.32
2019-01-21T01:02:21.592Z,80.11
2019-01-21T01:03:21.605Z,79.69
2019-01-21T01:04:21.690Z,80.11
2019-01-21T01:05:21.559Z,79.79
2019-01-21T01:06:21.548Z,79.58
2019-01-21T01:07:21.548Z,80.11
2019-01-21T01:08:21.560Z,80.15
2019-01-21T01:09:21.520Z,80.46
2019-01-21T01:10:21.502Z,81.30
2019-01-21T01:11:21.495Z,80.63
2019-01-21T01:12:21.512Z,80.00
2019-01-21T01:13:21.512Z,79.69
2019-01-21T01:14:21.454Z,79.58
2019-01-21T01:15:21.453Z,79.69
2019-01-21T01:16:21.442Z,79.69
2019-01-21T01:17:21.437Z,79.65
2019-01-21T01:18:21.440Z,79.97
2019-01-21T01:19:21.407Z,79.34
2019-01-21T01:20:21.417Z,79.48
2019-01-21T01:21:21.382Z,79.48
2019-01-21T01:22:21.378Z,79.69
2019-01-21T01:23:21.391Z,80.11
2019-01-21T01:24:21.358Z,80.77
2019-01-21T01:25:21.339Z,81.30
2019-01-21T01:26:21.325Z,80.74
2019-01-21T01:27:21.316Z,81.26
2019-01-21T01:28:21.321Z,80.77
2019-01-21T01:29:21.366Z,81.51
2019-01-21T01:30:21.292Z,80.88
2019-01-21T01:31:21.269Z,80.88
2019-01-21T01:32:21.258Z,81.20
2019-01-21T01:33:21.267Z,81.26
2019-01-21T01:34:21.237Z,80.94
2019-01-21T01:35:21.238Z,81.09
2019-01-21T01:36:21.211Z,80.15
2019-01-21T01:37:21.201Z,80.84
2019-01-21T01:38:21.248Z,80.67
2019-01-21T01:39:21.192Z,81.61
2019-01-21T01:40:21.188Z,81.16
2019-01-21T01:41:21.168Z,81.09
2019-01-21T01:42:21.150Z,80.81
2019-01-21T01:43:21.143Z,81.34
2019-01-21T01:44:21.155Z,81.54
2019-01-21T01:45:21.127Z,81.76
2019-01-21T01:46:21.116Z,81.86
2019-01-21T01:47:21.094Z,81.96
2019-01-21T01:48:21.084Z,82.17
2019-01-21T01:49:21.088Z,82.00
2019-01-21T01:50:21.061Z,82.53
2019-01-21T01:51:21.052Z,82.95
2019-01-21T01:52:21.048Z,82.95
2019-01-21T01:53:21.040Z,82.42
2019-01-21T01:54:22.536Z,82.10
2019-01-21T01:55:21.022Z,82.07
2019-01-21T01:56:20.997Z,81.96
2019-01-21T01:57:20.990Z,81.96
2019-01-21T01:58:20.974Z,83.33
2019-01-21T01:59:20.988Z,85.11
2019-01-21T02:00:20.946Z,83.58
2019-01-21T02:01:20.937Z,82.74
2019-01-21T02:02:20.934Z,82.49
2019-01-21T02:03:20.925Z,81.96
2019-01-21T02:04:20.934Z,82.70
2019-01-21T02:05:20.897Z,81.96
2019-01-21T02:06:20.896Z,82.17
2019-01-21T02:07:20.879Z,81.65
2019-01-21T02:08:20.868Z,81.54
2019-01-21T02:09:20.883Z,81.54
2019-01-21T02:10:20.844Z,81.44
2019-01-21T02:11:20.826Z,81.44
2019-01-21T02:12:20.821Z,81.65
2019-01-21T02:13:20.807Z,81.12
2019-01-21T02:14:20.808Z,81.44
2019-01-21T02:15:20.804Z,81.69
2019-01-21T02:16:20.800Z,81.44
2019-01-21T02:17:20.766Z,81.54
2019-01-21T02:18:20.762Z,81.34
2019-01-21T02:19:20.742Z,81.12
2019-01-21T02:20:20.746Z,81.23
2019-01-21T02:21:20.730Z,81.02
2019-01-21T02:22:20.714Z,81.37
2019-01-21T02:23:20.715Z,81.34
2019-01-21T02:24:20.684Z,81.54
2019-01-21T02:25:20.705Z,81.34
2019-01-21T02:26:20.659Z,81.65
2019-01-21T02:27:20.662Z,81.23
2019-01-21T02:28:20.644Z,81.34
2019-01-21T02:29:20.632Z,81.96
2019-01-21T02:30:20.645Z,81.54
2019-01-21T02:31:20.611Z,81.23
2019-01-21T02:32:20.601Z,81.34
2019-01-21T02:33:22.544Z,81.34
2019-01-21T02:34:21.546Z,81.76
2019-01-21T02:35:22.541Z,82.49
2019-01-21T02:36:20.563Z,82.49
2019-01-21T02:37:20.558Z,82.59
2019-01-21T02:38:20.531Z,83.26
2019-01-21T02:39:20.536Z,83.54
2019-01-21T02:40:20.616Z,84.17
2019-01-21T02:41:20.534Z,84.00
2019-01-21T02:42:20.499Z,82.53
2019-01-21T02:43:20.512Z,82.42
2019-01-21T02:44:20.507Z,82.39
2019-01-21T02:45:20.456Z,82.07
2019-01-21T02:46:20.481Z,82.17
2019-01-21T02:47:20.447Z,82.49
2019-01-21T02:48:20.435Z,82.17
2019-01-21T02:49:20.436Z,82.70
2019-01-21T02:50:20.405Z,82.59
2019-01-21T02:51:20.402Z,83.86
2019-01-21T02:52:20.372Z,82.91
2019-01-21T02:53:20.367Z,82.70
2019-01-21T02:54:20.366Z,82.70
2019-01-21T02:55:20.350Z,82.81
2019-01-21T02:56:20.369Z,83.33
2019-01-21T02:57:20.322Z,83.01
2019-01-21T02:58:20.316Z,82.91
2019-01-21T02:59:20.299Z,82.49
2019-01-21T03:00:20.294Z,81.86
2019-01-21T03:01:20.329Z,81.69
2019-01-21T03:02:20.284Z,83.47
2019-01-21T03:03:20.252Z,83.68
2019-01-21T03:04:20.245Z,83.37
2019-01-21T03:05:20.242Z,82.63
2019-01-21T03:06:20.252Z,82.95
2019-01-21T03:07:20.219Z,82.91
2019-01-21T03:08:20.203Z,82.17
2019-01-21T03:09:20.193Z,82.07
2019-01-21T03:10:20.183Z,82.59
2019-01-21T03:11:20.179Z,82.39
2019-01-21T03:12:20.168Z,82.32
2019-01-21T03:13:20.154Z,81.86
2019-01-21T03:14:20.131Z,81.86
2019-01-21T03:15:20.128Z,82.17
2019-01-21T03:16:20.138Z,81.96
2019-01-21T03:17:20.102Z,81.54
2019-01-21T03:18:20.092Z,81.34
2019-01-21T03:19:20.081Z,81.86
2019-01-21T03:20:20.071Z,81.44
2019-01-21T03:21:20.088Z,81.76
2019-01-21T03:22:20.047Z,81.54
2019-01-21T03:23:20.040Z,81.34
2019-01-21T03:24:20.026Z,81.44
2019-01-21T03:25:20.016Z,81.76
2019-01-21T03:26:20.011Z,82.07
2019-01-21T03:27:20.011Z,81.86
2019-01-21T03:28:19.993Z,81.54
2019-01-21T03:29:19.980Z,81.12
2019-01-21T03:30:19.970Z,81.12
2019-01-21T03:31:19.946Z,81.12
2019-01-21T03:32:19.962Z,81.54
2019-01-21T03:33:19.930Z,82.81
2019-01-21T03:34:19.933Z,84.31
2019-01-21T03:35:19.920Z,83.58
2019-01-21T03:36:19.898Z,82.74
2019-01-21T03:37:19.922Z,82.21
2019-01-21T03:38:19.880Z,82.42
2019-01-21T03:39:19.864Z,82.84
2019-01-21T03:40:19.851Z,82.98
2019-01-21T03:41:19.838Z,83.51
2019-01-21T03:42:20.348Z,84.10
2019-01-21T03:43:19.814Z,84.25
2019-01-21T03:44:19.811Z,83.89
2019-01-21T03:45:19.802Z,84.20
2019-01-21T03:46:19.790Z,83.26
2019-01-21T03:47:19.795Z,83.37
2019-01-21T03:48:19.762Z,83.47
2019-01-21T03:49:19.755Z,83.37
2019-01-21T03:50:19.746Z,83.54
2019-01-21T03:51:19.731Z,83.26
2019-01-21T03:52:19.738Z,82.63
2019-01-21T03:53:19.715Z,82.32
2019-01-21T03:54:19.693Z,82.63
2019-01-21T03:55:19.684Z,82.00
2019-01-21T03:56:19.676Z,82.78
2019-01-21T03:57:20.118Z,82.63
2019-01-21T03:58:19.672Z,82.78
2019-01-21T03:59:19.646Z,82.78
2019-01-21T04:00:19.633Z,82.74
2019-01-21T04:01:19.618Z,82.53
2019-01-21T04:02:19.650Z,82.53
2019-01-21T04:03:19.597Z,82.32
2019-01-21T04:04:19.596Z,82.67
2019-01-21T04:05:19.582Z,82.46
2019-01-21T04:06:19.563Z,83.30
2019-01-21T04:07:19.578Z,83.37
2019-01-21T04:08:19.543Z,83.37
2019-01-21T04:09:19.537Z,83.15
2019-01-21T04:10:19.522Z,83.58
2019-01-21T04:11:19.506Z,84.35
2019-01-21T04:12:19.493Z,83.89
2019-01-21T04:13:19.508Z,83.93
2019-01-21T04:14:19.476Z,84.00
2019-01-21T04:15:20.455Z,84.25
2019-01-21T04:16:19.463Z,84.20
2019-01-21T04:17:19.479Z,84.35
2019-01-21T04:18:24.499Z,83.79
2019-01-21T04:19:20.427Z,83.68
2019-01-21T04:20:19.415Z,83.68
2019-01-21T04:21:19.402Z,84.10
2019-01-21T04:22:19.394Z,83.58
2019-01-21T04:23:19.400Z,82.95
2019-01-21T04:24:19.367Z,83.26
2019-01-21T04:25:19.352Z,83.47
2019-01-21T04:26:19.342Z,83.58
2019-01-21T04:27:19.349Z,83.58
2019-01-21T04:28:19.342Z,83.79
2019-01-21T04:29:19.308Z,84.56
2019-01-21T04:30:19.314Z,84.56
2019-01-21T04:31:19.292Z,83.83
2019-01-21T04:32:19.279Z,85.40
2019-01-21T04:33:19.300Z,84.98
2019-01-21T04:34:19.258Z,84.70
2019-01-21T04:35:19.244Z,84.67
2019-01-21T04:36:19.236Z,84.28
2019-01-21T04:37:19.226Z,84.14
2019-01-21T04:38:19.238Z,84.08
2019-01-21T04:39:19.208Z,84.91
2019-01-21T04:40:19.256Z,85.13
2019-01-21T04:41:19.192Z,85.65
2019-01-21T04:42:19.162Z,85.75
2019-01-21T04:43:19.179Z,86.18
2019-01-21T04:44:19.146Z,86.07
2019-01-21T04:45:19.141Z,85.96
2019-01-21T04:46:19.305Z,85.82
2019-01-21T04:47:19.113Z,85.61
2019-01-21T04:48:19.127Z,85.65
2019-01-21T04:49:19.091Z,85.86
2019-01-21T04:50:19.104Z,86.13
2019-01-21T04:51:19.082Z,85.86
2019-01-21T04:52:19.054Z,86.24
2019-01-21T04:53:19.067Z,85.96
2019-01-21T04:54:19.118Z,85.82
2019-01-21T04:55:19.034Z,85.96
2019-01-21T04:56:19.020Z,86.07
2019-01-21T04:57:19.002Z,85.86
2019-01-21T04:58:18.995Z,85.55
2019-01-21T04:59:19.006Z,85.55
2019-01-21T05:00:18.968Z,85.55
2019-01-21T05:01:18.956Z,85.27
2019-01-21T05:02:18.951Z,85.75
2019-01-21T05:03:18.932Z,85.96
2019-01-21T05:04:18.946Z,86.07
2019-01-21T05:05:18.914Z,86.18
2019-01-21T05:06:18.908Z,86.28
2019-01-21T05:07:18.886Z,86.07
2019-01-21T05:08:18.886Z,85.69
2019-01-21T05:09:18.898Z,86.32
2019-01-21T05:10:18.872Z,85.75
2019-01-21T05:11:18.845Z,85.96
2019-01-21T05:12:18.851Z,85.65
2019-01-21T05:13:18.833Z,85.44
2019-01-21T05:14:18.834Z,85.75
2019-01-21T05:15:18.806Z,85.44
2019-01-21T05:16:18.794Z,86.18
2019-01-21T05:17:18.784Z,85.96
2019-01-21T05:18:18.794Z,85.96
2019-01-21T05:19:18.791Z,86.38
2019-01-21T05:20:18.745Z,85.96
2019-01-21T05:21:18.735Z,86.18
2019-01-21T05:22:18.731Z,86.18
2019-01-21T05:23:18.720Z,85.82
2019-01-21T05:24:18.726Z,86.03
2019-01-21T05:25:18.751Z,86.03
2019-01-21T05:26:18.681Z,86.13
2019-01-21T05:27:18.672Z,85.61
2019-01-21T05:28:18.661Z,85.61
2019-01-21T05:29:18.666Z,85.61
2019-01-21T05:30:18.675Z,85.50
2019-01-21T05:31:18.630Z,85.82
2019-01-21T05:32:18.612Z,86.03
2019-01-21T05:33:18.608Z,85.82
2019-01-21T05:34:18.614Z,86.13
2019-01-21T05:35:18.596Z,85.86
2019-01-21T05:36:18.572Z,86.03
2019-01-21T05:37:18.570Z,86.07
2019-01-21T05:38:18.544Z,86.07
2019-01-21T05:39:18.558Z,85.96
2019-01-21T05:40:18.526Z,86.18
2019-01-21T05:41:18.524Z,86.28
2019-01-21T05:42:18.514Z,85.86
2019-01-21T05:43:18.489Z,85.86
2019-01-21T05:44:18.630Z,86.07
2019-01-21T05:45:18.512Z,85.96
2019-01-21T05:46:18.482Z,85.40
2019-01-21T05:47:18.448Z,85.55
2019-01-21T05:48:18.442Z,85.50
2019-01-21T05:49:18.457Z,85.55
2019-01-21T05:50:18.426Z,85.55
2019-01-21T05:51:18.440Z,85.75
2019-01-21T05:52:18.395Z,86.38
2019-01-21T05:53:18.391Z,85.61
2019-01-21T05:54:18.383Z,86.03
2019-01-21T05:55:18.372Z,86.98
2019-01-21T05:56:18.356Z,86.24
2019-01-21T05:57:18.339Z,85.72
2019-01-21T05:58:18.342Z,85.86
2019-01-21T05:59:18.318Z,85.50
2019-01-21T06:00:18.331Z,85.82
2019-01-21T06:01:18.292Z,86.45
2019-01-21T06:02:18.287Z,86.28
2019-01-21T06:03:18.276Z,86.18
2019-01-21T06:04:18.256Z,86.38
2019-01-21T06:05:18.260Z,85.75
2019-01-21T06:06:18.238Z,86.18
2019-01-21T06:07:18.228Z,86.18
2019-01-21T06:08:18.225Z,87.44
2019-01-21T06:09:18.208Z,86.49
2019-01-21T06:10:18.212Z,86.60
2019-01-21T06:11:18.200Z,86.49
2019-01-21T06:12:18.180Z,86.07
2019-01-21T06:13:18.166Z,86.07
2019-01-21T06:14:18.149Z,86.18
2019-01-21T06:15:18.162Z,86.21
2019-01-21T06:16:18.134Z,86.00
2019-01-21T06:17:18.113Z,86.07
2019-01-21T06:18:18.106Z,85.75
2019-01-21T06:19:18.097Z,85.90
2019-01-21T06:20:18.096Z,86.11
2019-01-21T06:21:18.098Z,86.11
2019-01-21T06:22:18.063Z,85.79
2019-01-21T06:23:18.053Z,86.00
2019-01-21T06:24:18.048Z,86.63
2019-01-21T06:25:18.029Z,85.90
2019-01-21T06:26:18.053Z,85.75
2019-01-21T06:27:18.007Z,85.90
2019-01-21T06:28:17.994Z,85.79
2019-01-21T06:29:17.989Z,86.11
2019-01-21T06:30:17.976Z,86.95
2019-01-21T06:31:17.992Z,87.05
2019-01-21T06:32:17.962Z,87.37
2019-01-21T06:33:17.940Z,87.16
2019-01-21T06:34:17.945Z,86.95
2019-01-21T06:35:17.914Z,86.21
2019-01-21T06:36:17.927Z,85.90
2019-01-21T06:37:17.911Z,86.00
2019-01-21T06:38:17.890Z,86.38
2019-01-21T06:39:17.918Z,85.96
2019-01-21T06:40:17.885Z,86.11
2019-01-21T06:41:17.892Z,86.28
2019-01-21T06:42:17.840Z,86.21
2019-01-21T06:43:17.834Z,86.00
2019-01-21T06:44:17.826Z,86.07
2019-01-21T06:45:17.811Z,85.86
2019-01-21T06:46:17.853Z,85.75
2019-01-21T06:47:17.782Z,85.75
2019-01-21T06:48:17.770Z,85.75
2019-01-21T06:49:17.768Z,85.69
2019-01-21T06:50:17.752Z,85.65
2019-01-21T06:51:17.776Z,85.16
2019-01-21T06:52:17.766Z,85.16
2019-01-21T06:53:17.721Z,85.69
2019-01-21T06:54:17.726Z,85.69
2019-01-21T06:55:17.732Z,86.00
2019-01-21T06:57:18.891Z,86.25
2019-01-21T06:58:17.669Z,86.21
2019-01-21T06:59:17.655Z,86.85
2019-01-21T07:00:17.659Z,86.04
2019-01-21T07:01:17.644Z,86.32
2019-01-21T07:02:17.648Z,85.94
2019-01-21T07:03:17.692Z,85.94
2019-01-21T07:04:17.596Z,85.94
2019-01-21T07:05:17.583Z,86.25
2019-01-21T07:06:17.580Z,85.94
2019-01-21T07:07:17.659Z,87.10
2019-01-21T07:08:17.558Z,87.41
2019-01-21T07:09:17.547Z,86.57
2019-01-21T07:10:17.530Z,86.57
2019-01-21T07:11:17.518Z,86.99
2019-01-21T07:12:17.530Z,86.68
2019-01-21T07:13:17.506Z,87.30
2019-01-21T07:14:17.492Z,86.46
2019-01-21T07:15:17.480Z,85.83
2019-01-21T07:16:17.472Z,86.25
2019-01-21T07:17:17.478Z,85.79
2019-01-21T07:18:17.450Z,86.21
2019-01-21T07:19:17.435Z,85.90
2019-01-21T07:20:17.436Z,85.48
2019-01-21T07:21:17.410Z,85.37
2019-01-21T07:22:17.410Z,85.62
2019-01-21T07:23:17.394Z,86.29
2019-01-21T07:24:17.388Z,86.04
2019-01-21T07:25:17.375Z,85.83
2019-01-21T07:26:17.366Z,86.36
2019-01-21T07:27:17.649Z,86.08
2019-01-21T07:28:17.329Z,86.82
2019-01-21T07:29:17.327Z,87.03
2019-01-21T07:30:17.318Z,87.35
2019-01-21T07:31:17.311Z,86.82
2019-01-21T07:32:17.313Z,87.45
2019-01-21T07:33:17.877Z,87.49
2019-01-21T07:34:17.268Z,87.28
2019-01-21T07:35:17.268Z,87.81
2019-01-21T07:36:17.255Z,88.18
2019-01-21T07:37:17.417Z,87.87
2019-01-21T07:38:17.223Z,88.86
2019-01-21T07:39:17.212Z,88.82
2019-01-21T07:40:17.206Z,87.55
2019-01-21T07:41:17.208Z,86.93
2019-01-21T07:42:17.178Z,87.28
2019-01-21T07:43:17.191Z,87.76
2019-01-21T07:44:17.159Z,87.91
2019-01-21T07:45:17.145Z,88.86
2019-01-21T07:46:17.135Z,88.29
2019-01-21T07:47:17.136Z,88.71
2019-01-21T07:48:17.144Z,87.35
2019-01-21T07:49:17.721Z,87.35
2019-01-21T07:50:17.095Z,86.19
2019-01-21T07:51:17.077Z,85.97
2019-01-21T07:52:17.074Z,86.44
2019-01-21T07:53:17.086Z,86.54
2019-01-21T07:54:17.075Z,86.96
2019-01-21T07:55:17.038Z,87.32
2019-01-21T07:56:17.031Z,87.11
2019-01-21T07:57:17.011Z,87.81
2019-01-21T07:58:17.022Z,88.69
2019-01-21T07:59:16.994Z,88.96
2019-01-21T08:00:16.993Z,88.02
2019-01-21T08:01:16.967Z,86.96
2019-01-21T08:02:16.966Z,87.81
2019-01-21T08:03:16.968Z,88.86
2019-01-21T08:04:16.950Z,87.66
2019-01-21T08:05:16.927Z,87.24
2019-01-21T08:06:16.926Z,86.29
2019-01-21T08:07:16.902Z,87.03
2019-01-21T08:08:16.919Z,86.86
2019-01-21T08:09:16.897Z,87.49
2019-01-21T08:10:16.876Z,88.23
2019-01-21T08:11:16.863Z,87.81
2019-01-21T08:12:16.860Z,88.71
2019-01-21T08:13:16.874Z,87.70
2019-01-21T08:14:16.826Z,87.70
2019-01-21T08:15:16.820Z,86.96
2019-01-21T08:16:16.816Z,87.18
2019-01-21T08:17:16.800Z,87.07
2019-01-21T08:18:16.812Z,86.96
2019-01-21T08:19:16.773Z,87.49
2019-01-21T08:20:16.761Z,88.12
2019-01-21T08:21:16.763Z,88.75
2019-01-21T08:22:16.742Z,87.38
2019-01-21T08:23:16.749Z,87.49
2019-01-21T08:24:16.720Z,87.74
2019-01-21T08:25:16.710Z,89.00
2019-01-21T08:26:16.697Z,88.37
2019-01-21T08:27:16.706Z,88.12
2019-01-21T08:28:17.252Z,88.75
2019-01-21T08:29:16.820Z,87.28
2019-01-21T08:30:16.655Z,86.76
2019-01-21T08:31:16.667Z,87.87
2019-01-21T08:32:16.630Z,88.08
2019-01-21T08:33:16.639Z,87.98
2019-01-21T08:34:16.617Z,86.15
2019-01-21T08:35:16.595Z,86.25
2019-01-21T08:36:16.621Z,85.31
2019-01-21T08:37:16.575Z,85.83
2019-01-21T08:38:16.604Z,85.73
2019-01-21T08:39:16.567Z,85.62
2019-01-21T08:40:16.574Z,86.88
2019-01-21T08:41:16.656Z,87.52
2019-01-21T08:42:16.527Z,88.04
2019-01-21T08:43:16.508Z,86.53
2019-01-21T08:44:16.523Z,85.90
2019-01-21T08:45:16.502Z,84.53
2019-01-21T08:46:16.482Z,84.89
2019-01-21T08:47:16.465Z,85.73
2019-01-21T08:48:16.501Z,85.94
2019-01-21T08:49:16.477Z,85.94
2019-01-21T08:50:16.450Z,85.87
2019-01-21T08:51:16.439Z,86.08
2019-01-21T08:52:16.429Z,86.40
2019-01-21T08:53:16.398Z,86.29
2019-01-21T08:54:16.419Z,87.35
2019-01-21T08:55:16.381Z,87.10
2019-01-21T08:56:16.369Z,86.25
2019-01-21T08:57:16.356Z,86.25
2019-01-21T08:58:16.342Z,86.00
2019-01-21T08:59:16.371Z,85.90
2019-01-21T09:00:16.324Z,85.55
2019-01-21T09:01:16.313Z,85.13
2019-01-21T09:02:16.299Z,84.91
2019-01-21T09:03:16.298Z,84.25
2019-01-21T09:04:16.300Z,83.93
2019-01-21T09:05:16.264Z,84.28
2019-01-21T09:06:16.257Z,84.08
2019-01-21T09:07:16.258Z,84.01
2019-01-21T09:08:16.236Z,84.95
2019-01-21T09:09:16.269Z,84.64
2019-01-21T09:10:16.206Z,85.37
2019-01-21T09:11:16.206Z,85.10
2019-01-21T09:12:16.194Z,85.62
2019-01-21T09:13:16.196Z,85.83
2019-01-21T09:14:16.207Z,86.08
2019-01-21T09:15:16.166Z,85.97
2019-01-21T09:16:16.140Z,87.35
2019-01-21T09:17:16.133Z,87.24
2019-01-21T09:18:16.121Z,86.93
2019-01-21T09:19:16.138Z,87.35
2019-01-21T09:20:16.122Z,86.96
2019-01-21T09:21:16.110Z,86.96
2019-01-21T09:22:16.078Z,86.82
2019-01-21T09:23:16.094Z,86.86
2019-01-21T09:24:16.060Z,86.93
2019-01-21T09:25:16.066Z,86.93
2019-01-21T09:26:16.052Z,86.93
2019-01-21T09:27:16.026Z,86.93
2019-01-21T09:28:16.022Z,86.04
2019-01-21T09:29:16.004Z,86.57
2019-01-21T09:30:16.010Z,85.94
2019-01-21T09:31:15.979Z,86.15
2019-01-21T09:32:15.978Z,85.90
2019-01-21T09:33:15.956Z,86.11
2019-01-21T09:34:15.965Z,85.65
2019-01-21T09:35:15.956Z,84.91
2019-01-21T09:36:15.929Z,84.18
2019-01-21T09:37:15.946Z,83.86
2019-01-21T09:38:15.915Z,84.84
2019-01-21T09:39:15.919Z,85.13
2019-01-21T09:40:15.906Z,85.02
2019-01-21T09:41:15.873Z,85.02
2019-01-21T09:42:15.876Z,85.23
2019-01-21T09:43:15.852Z,85.19
2019-01-21T09:44:15.849Z,83.51
2019-01-21T09:45:15.859Z,83.54
2019-01-21T09:46:15.828Z,83.90
2019-01-21T09:47:15.816Z,84.64
2019-01-21T09:48:15.796Z,85.16
2019-01-21T09:49:15.795Z,85.79
2019-01-21T09:50:15.806Z,85.90
2019-01-21T09:51:15.773Z,85.16
2019-01-21T09:52:15.757Z,85.13
2019-01-21T09:53:15.780Z,85.16
2019-01-21T09:54:15.738Z,85.79
2019-01-21T09:55:15.751Z,85.79
2019-01-21T09:56:15.707Z,85.83
2019-01-21T09:57:15.699Z,86.25
2019-01-21T09:58:15.749Z,85.90
2019-01-21T09:59:15.757Z,86.74
2019-01-21T10:00:15.699Z,85.90
2019-01-21T10:01:15.775Z,86.21
2019-01-21T10:02:15.643Z,86.11
2019-01-21T10:03:15.690Z,85.90
2019-01-21T10:04:15.647Z,86.36
2019-01-21T10:05:15.731Z,85.94
2019-01-21T10:06:15.602Z,86.88
2019-01-21T10:07:15.605Z,86.99
2019-01-21T10:08:15.613Z,86.99
2019-01-21T10:09:15.599Z,87.73
2019-01-21T10:10:15.610Z,86.88
2019-01-21T10:11:15.588Z,86.04
2019-01-21T10:12:15.544Z,85.73
2019-01-21T10:13:15.550Z,86.53
2019-01-21T10:14:15.509Z,86.21
2019-01-21T10:15:15.515Z,87.05
2019-01-21T10:16:15.565Z,86.91
2019-01-21T10:17:15.512Z,86.91
2019-01-21T10:18:15.472Z,86.45
2019-01-21T10:19:15.462Z,85.93
2019-01-21T10:20:15.460Z,84.73
2019-01-21T10:21:15.488Z,84.10
2019-01-21T10:22:15.445Z,84.03
2019-01-21T10:23:15.441Z,84.35
2019-01-21T10:24:15.422Z,84.35
2019-01-21T10:25:15.391Z,84.81
2019-01-21T10:26:15.416Z,85.02
2019-01-21T10:27:15.394Z,85.27
2019-01-21T10:28:15.361Z,85.79
2019-01-21T10:29:15.350Z,85.90
2019-01-21T10:30:15.332Z,86.18
2019-01-21T10:31:15.387Z,85.86
2019-01-21T10:32:15.313Z,85.65
2019-01-21T10:33:15.340Z,85.08
2019-01-21T10:34:15.293Z,84.77
2019-01-21T10:35:15.278Z,83.93
2019-01-21T10:36:15.286Z,84.20
2019-01-21T10:37:15.263Z,83.37
2019-01-21T10:38:15.242Z,83.30
2019-01-21T10:39:15.449Z,82.74
2019-01-21T10:40:15.223Z,83.15
2019-01-21T10:41:15.251Z,82.56
2019-01-21T10:42:15.226Z,82.67
2019-01-21T10:43:16.242Z,82.14
2019-01-21T10:44:15.180Z,83.02
2019-01-21T10:45:15.210Z,83.65
2019-01-21T10:46:15.156Z,84.08
2019-01-21T10:47:15.201Z,84.39
2019-01-21T10:48:15.146Z,84.03
2019-01-21T10:49:15.181Z,83.72
2019-01-21T10:50:15.200Z,83.72
2019-01-21T10:51:15.136Z,83.61
2019-01-21T10:52:15.125Z,83.40
2019-01-21T10:53:15.078Z,83.30
2019-01-21T10:54:15.083Z,83.30
2019-01-21T10:55:15.060Z,83.09
2019-01-21T10:56:15.095Z,82.63
2019-01-21T10:57:15.065Z,82.63
2019-01-21T10:58:15.027Z,82.10
2019-01-21T10:59:15.007Z,82.42
2019-01-21T11:00:15.008Z,82.78
2019-01-21T11:01:15.004Z,82.88
2019-01-21T11:02:15.002Z,84.03
2019-01-21T11:03:14.998Z,83.86
2019-01-21T11:04:14.971Z,84.14
2019-01-21T11:05:14.999Z,84.14
2019-01-21T11:06:14.945Z,84.35
2019-01-21T11:07:14.959Z,84.08
2019-01-21T11:08:14.944Z,84.81
2019-01-21T11:09:14.908Z,84.67
2019-01-21T11:10:14.902Z,84.88
2019-01-21T11:11:14.886Z,83.97
2019-01-21T11:12:14.920Z,84.45
2019-01-21T11:13:14.885Z,84.35
2019-01-21T11:14:14.879Z,84.39
2019-01-21T11:15:14.854Z,84.56
2019-01-21T11:16:14.822Z,84.67
2019-01-21T11:17:14.899Z,84.88
2019-01-21T11:18:14.827Z,84.18
2019-01-21T11:19:14.814Z,84.91
2019-01-21T11:20:14.822Z,84.08
2019-01-21T11:21:14.772Z,84.70
2019-01-21T11:22:14.765Z,84.11
2019-01-21T11:23:14.838Z,84.70
2019-01-21T11:24:15.034Z,84.70
2019-01-21T11:25:14.743Z,84.70
2019-01-21T11:26:14.714Z,84.91
2019-01-21T11:27:14.727Z,84.67
2019-01-21T11:28:14.771Z,83.86
2019-01-21T11:29:14.680Z,83.93
2019-01-21T11:30:14.677Z,84.14
2019-01-21T11:31:14.654Z,84.08
2019-01-21T11:32:14.654Z,84.08
2019-01-21T11:33:14.748Z,84.08
2019-01-21T11:34:14.632Z,84.70
2019-01-21T11:35:14.625Z,83.93
2019-01-21T11:36:14.623Z,84.81
2019-01-21T11:37:14.592Z,84.88
2019-01-21T11:38:14.606Z,85.02
2019-01-21T11:39:14.574Z,85.08
2019-01-21T11:40:14.569Z,84.77
2019-01-21T11:41:14.555Z,84.88
2019-01-21T11:42:14.560Z,84.88
2019-01-21T11:43:14.571Z,83.93
2019-01-21T11:44:14.526Z,84.31
2019-01-21T11:45:18.598Z,83.86
2019-01-21T11:46:14.499Z,82.59
2019-01-21T11:47:14.486Z,82.28
2019-01-21T11:48:14.517Z,82.07
2019-01-21T11:49:14.464Z,81.34
2019-01-21T11:50:14.520Z,81.44
2019-01-21T11:51:14.441Z,81.30
2019-01-21T11:52:17.637Z,82.87
2019-01-21T11:53:14.432Z,81.47
2019-01-21T11:54:14.421Z,81.26
2019-01-21T11:55:14.401Z,80.74
2019-01-21T11:56:14.406Z,79.58
2019-01-21T11:57:14.375Z,80.15
2019-01-21T11:58:14.398Z,80.91
2019-01-21T11:59:14.359Z,81.54
2019-01-21T12:00:14.334Z,82.21
2019-01-21T12:01:14.333Z,82.74
2019-01-21T12:02:14.323Z,83.47
2019-01-21T12:03:14.316Z,84.42
2019-01-21T12:04:14.344Z,84.06
2019-01-21T12:05:14.288Z,83.54
2019-01-21T12:06:14.271Z,82.76
2019-01-21T12:07:14.279Z,81.54
2019-01-21T12:08:14.284Z,81.44
2019-01-21T12:09:14.280Z,82.35
2019-01-21T12:10:14.227Z,83.18
2019-01-21T12:11:14.231Z,81.82
2019-01-21T12:12:14.202Z,80.91
2019-01-21T12:13:14.195Z,81.34
2019-01-21T12:14:14.252Z,81.23
2019-01-21T12:15:14.186Z,81.58
2019-01-21T12:16:14.165Z,82.42
2019-01-21T12:17:14.170Z,82.63
2019-01-21T12:18:14.147Z,82.63
2019-01-21T12:19:14.159Z,82.74
2019-01-21T12:20:17.214Z,82.42
2019-01-21T12:21:14.110Z,82.21
2019-01-21T12:22:14.101Z,82.84
2019-01-21T12:23:14.104Z,83.26
2019-01-21T12:24:14.092Z,82.17
2019-01-21T12:25:14.122Z,81.76
2019-01-21T12:26:14.058Z,81.65
2019-01-21T12:27:14.039Z,81.44
2019-01-21T12:28:14.042Z,81.16
2019-01-21T12:29:14.053Z,82.14
2019-01-21T12:30:14.018Z,82.46
2019-01-21T12:31:14.025Z,82.74
2019-01-21T12:32:13.994Z,82.53
2019-01-21T12:33:13.972Z,82.07
2019-01-21T12:34:13.982Z,81.20
2019-01-21T12:35:13.957Z,80.42
2019-01-21T12:36:13.956Z,79.75
2019-01-21T12:37:13.944Z,78.71
2019-01-21T12:38:13.932Z,77.76
2019-01-21T12:39:13.967Z,76.72
2019-01-21T12:40:13.909Z,77.56
2019-01-21T12:41:13.896Z,77.45
2019-01-21T12:42:13.871Z,77.66
2019-01-21T12:43:13.877Z,78.08
2019-01-21T12:44:13.843Z,77.91
2019-01-21T12:45:13.859Z,78.43
2019-01-21T12:46:13.832Z,78.53
2019-01-21T12:47:13.828Z,78.22
2019-01-21T12:48:13.808Z,79.20
2019-01-21T12:49:13.832Z,79.16
2019-01-21T12:50:13.808Z,79.48
2019-01-21T12:51:13.781Z,78.39
2019-01-21T12:52:13.770Z,77.48
2019-01-21T12:53:13.765Z,78.36